aviador You're here:

KPDK Decoded Metar

PEACHTREE/DEKALB in GA, USA
Report Time2018-06-17 20:53:00
UTC Time2018-06-17 21:43:11
Flight Rules vfr VFR
WindCalm
Visibility9999 m
Phenomena:N/A
Clouds:N/A
Expected CloudBase > 4,400 ft AGL from Temp-Dew spread
CeilingNone
Temp31°C (ISA +18)
Dew Point20°C (52% RH)
Heat Index33.0°C
QNH1019 hPa
Density Alt3,153 ft
Elevation991 ft
Report Wrong Elevation
Raw Report
METAR KPDK 172053Z 00000KT 10SM CLR 31/20 A3010 RMK AO2 LTG DSNT SW-NW
SLP174 T03110200 58013=

Extra information for KPDK:More info

Metar Taf Metar & Taf Last 4 Metars F.Rules Stats Wind Profile Meteogram Temp Stats Airport Information Weather charts Add Link Nearby VenuesMetar ALERT Operation Metar Decoded Social comments

AIRNAV info for KPDK